This is the latest recevied weather packets stored in our database for station/object DG3RAP-11. If no packets are shown the sender has not sent any weather packets the latest 10 day(s).
| Time | Temp. | Humidity | Pressure | Rain* | Wind** | Luminosity | Snow |
|---|---|---|---|---|---|---|---|
| 1777843623 | 17.22° C | 55% | 1012.5 hPa | 0 mm | - | - | - |
| 1777843083 | 17.78° C | 54% | 1012.2 hPa | 0 mm | - | - | - |
| 1777842543 | 17.22° C | 55% | 1012.4 hPa | 0 mm | - | - | - |
| 1777842003 | 17.22° C | 55% | 1012.3 hPa | 0 mm | - | - | - |
| 1777841643 | 17.22° C | 55% | 1012.4 hPa | 0 mm | - | - | - |
| 1777841103 | 17.78° C | 54% | 1012.2 hPa | 0 mm | - | - | - |
| 1777840563 | 17.78° C | 53% | 1012.1 hPa | 0 mm | - | - | - |
| 1777840023 | 17.78° C | 53% | 1012 hPa | 0 mm | - | - | - |
| 1777839483 | 18.33° C | 52% | 1012 hPa | 0 mm | - | - | - |
| 1777838943 | 18.33° C | 50% | 1011.9 hPa | 0 mm | - | - | - |
| 1777838403 | 18.33° C | 51% | 1011.8 hPa | 0 mm | - | - | - |
| 1777838043 | 18.89° C | 50% | 1011.8 hPa | 0 mm | - | - | - |
| 1777837503 | 19.44° C | 48% | 1012 hPa | 0 mm | - | - | - |
| 1777836963 | 20° C | 47% | 1012 hPa | 0 mm | - | - | - |
| 1777836423 | 20.56° C | 44% | 1011.6 hPa | 0 mm | - | - | - |
| 1777835883 | 21.67° C | 40% | 1011.8 hPa | 0 mm | - | - | - |
| 1777835343 | 21.67° C | 39% | 1011.7 hPa | 0 mm | - | - | - |
| 1777834803 | 21.11° C | 39% | 1011.6 hPa | 0 mm | - | - | - |
| 1777834443 | 21.67° C | 38% | 1011.6 hPa | 0 mm | - | - | - |
| 1777833903 | 21.11° C | 38% | 1011.4 hPa | 0 mm | - | - | - |
| 1777833363 | 21.11° C | 39% | 1011.5 hPa | 0 mm | - | - | - |
| 1777832823 | 21.67° C | 37% | 1011.2 hPa | 0 mm | - | - | - |
| 1777832284 | 22.22° C | 37% | 1011.2 hPa | 0 mm | - | - | - |
| 1777831743 | 23.33° C | 34% | 1011.3 hPa | 0 mm | - | - | - |
| 1777831203 | 22.78° C | 36% | 1011.4 hPa | 0 mm | - | - | - |
* Rain latest hour (hover to see other rain measurements)
** Current wind speed in m/s (hover to see current wind gust speed)